createdAt,value
2023-05-06T00:04:50.388Z,100.00
2023-05-06T00:09:52.714Z,100.00
2023-05-06T00:14:54.906Z,100.00
2023-05-06T00:19:58.859Z,100.00
2023-05-06T00:25:01.087Z,100.00
2023-05-06T00:30:04.337Z,100.00
2023-05-06T00:35:07.432Z,100.00
2023-05-06T00:40:10.833Z,100.00
2023-05-06T00:45:13.311Z,100.00
2023-05-06T00:50:15.734Z,100.00
2023-05-06T00:55:18.235Z,100.00
2023-05-06T01:00:21.605Z,100.00
2023-05-06T01:05:29.985Z,100.00
2023-05-06T01:10:52.584Z,100.00
2023-05-06T01:15:59.695Z,100.00
2023-05-06T01:21:05.339Z,100.00
2023-05-06T01:26:07.501Z,100.00
2023-05-06T01:31:15.287Z,100.00
2023-05-06T01:37:10.814Z,100.00
2023-05-06T01:42:15.568Z,100.00
2023-05-06T01:47:19.690Z,100.00
2023-05-06T01:52:22.541Z,100.00
2023-05-06T01:57:25.706Z,99.95
2023-05-06T02:02:27.936Z,98.27
2023-05-06T02:07:30.394Z,98.54
2023-05-06T02:12:32.888Z,100.00
2023-05-06T02:17:37.517Z,100.00
2023-05-06T02:22:40.003Z,100.00
2023-05-06T02:27:42.516Z,100.00
2023-05-06T02:32:44.953Z,100.00
2023-05-06T02:37:47.085Z,100.00
2023-05-06T02:42:50.545Z,100.00
2023-05-06T02:47:52.758Z,100.00
2023-05-06T02:52:54.913Z,100.00
2023-05-06T02:57:57.076Z,100.00
2023-05-06T03:02:59.268Z,100.00
2023-05-06T03:08:02.587Z,100.00
2023-05-06T03:13:06.268Z,100.00
2023-05-06T03:18:08.565Z,100.00
2023-05-06T03:23:12.266Z,100.00
2023-05-06T03:28:15.048Z,100.00
2023-05-06T03:33:19.984Z,100.00
2023-05-06T03:38:22.617Z,100.00
2023-05-06T03:43:31.871Z,100.00
2023-05-06T03:48:37.485Z,100.00
2023-05-06T03:53:44.049Z,100.00
2023-05-06T03:58:46.316Z,100.00
2023-05-06T04:03:49.516Z,100.00
2023-05-06T04:08:51.815Z,100.00
2023-05-06T04:13:55.466Z,100.00
2023-05-06T04:18:58.860Z,100.00
2023-05-06T04:24:01.458Z,100.00
2023-05-06T04:29:09.965Z,100.00
2023-05-06T04:34:20.404Z,100.00
2023-05-06T04:39:23.017Z,100.00
2023-05-06T04:44:27.311Z,100.00
2023-05-06T04:49:30.125Z,100.00
2023-05-06T04:54:32.502Z,100.00
2023-05-06T04:59:34.901Z,100.00
2023-05-06T05:04:38.249Z,100.00
2023-05-06T05:09:40.941Z,100.00
2023-05-06T05:14:43.594Z,100.00
2023-05-06T05:19:47.707Z,100.00
2023-05-06T05:24:51.785Z,100.00
2023-05-06T05:29:54.283Z,100.00
2023-05-06T05:34:57.414Z,100.00
2023-05-06T05:40:00.427Z,98.36
2023-05-06T05:45:02.815Z,98.94
2023-05-06T05:50:05.746Z,94.80
2023-05-06T05:55:09.044Z,92.53
2023-05-06T06:00:14.256Z,92.18
2023-05-06T06:05:19.161Z,86.31
2023-05-06T06:10:21.376Z,85.29
2023-05-06T06:15:24.615Z,84.00
2023-05-06T06:20:28.856Z,82.44
2023-05-06T06:25:31.189Z,84.51
2023-05-06T06:30:33.604Z,81.45
2023-05-06T06:35:36.121Z,85.91
2023-05-06T06:40:41.045Z,79.84
2023-05-06T06:45:48.314Z,76.97
2023-05-06T06:50:50.744Z,77.22
2023-05-06T06:55:53.160Z,72.89
2023-05-06T07:00:55.326Z,75.22
2023-05-06T07:05:57.431Z,74.36
2023-05-06T07:11:01.307Z,75.67
2023-05-06T07:16:03.914Z,77.26
2023-05-06T07:21:06.202Z,74.83
2023-05-06T07:26:08.295Z,72.47
2023-05-06T07:31:10.805Z,68.70
2023-05-06T07:36:13.166Z,66.03
2023-05-06T07:41:15.482Z,65.38
2023-05-06T07:46:17.874Z,61.47
2023-05-06T07:51:20.117Z,60.86
2023-05-06T07:56:22.459Z,61.96
2023-05-06T08:01:25.614Z,61.14
2023-05-06T08:06:27.819Z,63.29
2023-05-06T08:11:29.952Z,61.83
2023-05-06T08:16:32.310Z,62.44
2023-05-06T08:21:34.470Z,58.09
2023-05-06T08:26:38.537Z,57.63
2023-05-06T08:31:40.918Z,54.72
2023-05-06T08:36:43.300Z,57.73
2023-05-06T08:41:52.477Z,58.48
2023-05-06T08:46:54.952Z,54.00
2023-05-06T08:51:58.292Z,50.82
2023-05-06T08:57:06.244Z,52.78
2023-05-06T09:02:08.784Z,56.01
2023-05-06T09:07:11.280Z,57.63
2023-05-06T09:12:15.162Z,62.08
2023-05-06T09:17:28.698Z,58.53
2023-05-06T09:22:31.381Z,63.87
2023-05-06T09:27:36.977Z,66.35
2023-05-06T09:32:40.702Z,64.11
2023-05-06T09:37:43.191Z,52.06
2023-05-06T09:42:45.916Z,48.65
2023-05-06T09:47:49.893Z,47.24
2023-05-06T09:52:52.335Z,47.75
2023-05-06T09:57:56.440Z,45.04
2023-05-06T10:03:00.928Z,46.44
2023-05-06T10:08:04.633Z,46.61
2023-05-06T10:13:07.095Z,44.06
2023-05-06T10:18:09.893Z,41.22
2023-05-06T10:23:24.098Z,42.63
2023-05-06T10:28:30.914Z,41.13
2023-05-06T10:33:34.739Z,41.83
2023-05-06T10:38:44.560Z,41.91
2023-05-06T10:43:47.874Z,40.22
2023-05-06T10:49:04.913Z,39.96
2023-05-06T10:54:07.910Z,41.24
2023-05-06T10:59:12.545Z,38.50
2023-05-06T11:04:18.781Z,40.97
2023-05-06T11:09:27.862Z,43.94
2023-05-06T11:14:35.920Z,43.88
2023-05-06T11:19:40.240Z,36.66
2023-05-06T11:24:44.328Z,36.08
2023-05-06T11:29:46.895Z,37.95
2023-05-06T11:34:49.264Z,41.27
2023-05-06T11:39:51.394Z,44.17
2023-05-06T11:44:55.937Z,47.29
2023-05-06T11:49:59.190Z,45.70
2023-05-06T11:55:01.328Z,42.69
2023-05-06T12:00:05.231Z,44.96
2023-05-06T12:05:14.679Z,42.59
2023-05-06T12:10:17.715Z,43.33
2023-05-06T12:15:20.112Z,44.02
2023-05-06T12:20:23.405Z,47.10
2023-05-06T12:25:25.747Z,49.32
2023-05-06T12:30:34.669Z,50.02
2023-05-06T12:35:37.617Z,52.90
2023-05-06T12:40:44.672Z,53.09
2023-05-06T12:46:09.469Z,53.92
2023-05-06T12:51:19.589Z,54.96
2023-05-06T12:56:22.687Z,53.90
2023-05-06T13:01:24.906Z,46.72
2023-05-06T13:06:27.009Z,42.43
2023-05-06T13:11:29.181Z,48.96
2023-05-06T13:16:32.575Z,45.90
2023-05-06T13:21:36.230Z,44.14
2023-05-06T13:26:38.952Z,43.28
2023-05-06T13:31:41.251Z,48.03
2023-05-06T13:36:44.199Z,49.06
2023-05-06T13:41:50.359Z,45.23
2023-05-06T13:46:52.802Z,42.78
2023-05-06T13:51:54.996Z,46.60
2023-05-06T13:56:58.487Z,44.86
2023-05-06T14:02:01.305Z,47.73
2023-05-06T14:07:03.592Z,45.50
2023-05-06T14:12:06.169Z,42.75
2023-05-06T14:17:08.315Z,46.42
2023-05-06T14:22:10.423Z,44.91
2023-05-06T14:27:12.652Z,45.77
2023-05-06T14:32:15.527Z,47.60
2023-05-06T14:37:18.014Z,43.08
2023-05-06T14:42:20.158Z,44.77
2023-05-06T14:47:22.607Z,45.41
2023-05-06T14:52:24.977Z,47.47
2023-05-06T14:57:27.154Z,48.93
2023-05-06T15:02:29.382Z,48.55
2023-05-06T15:07:31.626Z,43.08
2023-05-06T15:12:36.512Z,47.81
2023-05-06T15:17:39.607Z,44.28
2023-05-06T15:22:41.860Z,49.79
2023-05-06T15:27:44.256Z,45.18
2023-05-06T15:32:49.179Z,45.36
2023-05-06T15:37:58.863Z,51.09
2023-05-06T15:43:01.186Z,51.97
2023-05-06T15:48:03.385Z,50.72
2023-05-06T15:53:05.611Z,49.34
2023-05-06T15:58:07.707Z,51.16
2023-05-06T16:03:12.024Z,52.99
2023-05-06T16:08:15.193Z,51.30
2023-05-06T16:13:17.842Z,52.89
2023-05-06T16:18:20.056Z,52.80
2023-05-06T16:23:22.246Z,51.39
2023-05-06T16:28:24.802Z,53.45
2023-05-06T16:33:27.024Z,54.08
2023-05-06T16:38:29.161Z,53.45
2023-05-06T16:43:31.558Z,52.01
2023-05-06T16:48:34.407Z,51.56
2023-05-06T16:53:36.763Z,54.13
2023-05-06T16:58:39.235Z,51.36
2023-05-06T17:03:43.026Z,49.10
2023-05-06T17:08:45.539Z,56.26
2023-05-06T17:13:47.899Z,55.04
2023-05-06T17:18:50.085Z,54.06
2023-05-06T17:23:54.616Z,57.83
2023-05-06T17:28:56.763Z,57.71
2023-05-06T17:33:58.965Z,56.01
2023-05-06T17:39:05.871Z,57.81
2023-05-06T17:44:08.266Z,56.81
2023-05-06T17:49:10.634Z,56.55
2023-05-06T17:54:13.629Z,57.69
2023-05-06T17:59:17.761Z,58.85
2023-05-06T18:04:19.861Z,59.62
2023-05-06T18:09:22.070Z,59.30
2023-05-06T18:14:24.311Z,57.43
2023-05-06T18:19:26.457Z,52.67
2023-05-06T18:24:28.554Z,52.40
2023-05-06T18:29:32.777Z,54.88
2023-05-06T18:34:35.138Z,50.81
2023-05-06T18:39:45.655Z,51.97
2023-05-06T18:44:50.427Z,52.54
2023-05-06T18:49:53.585Z,57.86
2023-05-06T18:54:55.734Z,58.09
2023-05-06T18:59:57.930Z,57.39
2023-05-06T19:05:00.164Z,55.55
2023-05-06T19:10:02.435Z,57.84
2023-05-06T19:15:05.171Z,61.80
2023-05-06T19:20:08.838Z,59.25
2023-05-06T19:25:11.639Z,58.04
2023-05-06T19:30:14.401Z,58.87
2023-05-06T19:35:17.806Z,60.04
2023-05-06T19:40:20.629Z,59.48
2023-05-06T19:45:22.776Z,61.20
2023-05-06T19:50:28.572Z,58.16
2023-05-06T19:55:31.473Z,58.22
2023-05-06T20:00:33.884Z,58.19
2023-05-06T20:05:36.314Z,57.67
2023-05-06T20:10:39.002Z,59.66
2023-05-06T20:15:41.706Z,59.91
2023-05-06T20:20:44.322Z,59.08
2023-05-06T20:25:46.606Z,61.88
2023-05-06T20:30:48.992Z,62.01
2023-05-06T20:35:52.447Z,61.41
2023-05-06T20:40:54.614Z,62.09
2023-05-06T20:45:56.824Z,65.07
2023-05-06T20:50:59.064Z,63.90
2023-05-06T20:56:01.592Z,63.56
2023-05-06T21:01:04.036Z,64.60
2023-05-06T21:06:06.360Z,65.77
2023-05-06T21:11:08.441Z,65.36
2023-05-06T21:16:10.575Z,63.94
2023-05-06T21:21:12.688Z,64.42
2023-05-06T21:26:16.016Z,65.38
2023-05-06T21:31:24.189Z,66.78
2023-05-06T21:36:27.300Z,67.18
2023-05-06T21:41:29.570Z,65.48
2023-05-06T21:46:33.043Z,69.64
2023-05-06T21:51:36.645Z,66.79
2023-05-06T21:56:38.867Z,68.05
2023-05-06T22:01:41.042Z,66.39
2023-05-06T22:06:43.223Z,67.52
2023-05-06T22:11:45.732Z,70.52
2023-05-06T22:16:48.247Z,67.81
2023-05-06T22:21:50.409Z,69.76
2023-05-06T22:26:52.563Z,69.01
2023-05-06T22:31:54.767Z,70.01
2023-05-06T22:36:59.162Z,66.83
2023-05-06T22:42:02.988Z,66.37
2023-05-06T22:47:05.171Z,68.83
2023-05-06T22:52:07.382Z,69.28
2023-05-06T22:57:09.780Z,69.74
2023-05-06T23:02:12.218Z,68.73
2023-05-06T23:07:14.847Z,71.35
2023-05-06T23:12:17.221Z,68.18
2023-05-06T23:17:19.435Z,70.64
2023-05-06T23:22:21.552Z,70.86
2023-05-06T23:27:23.845Z,73.03
2023-05-06T23:32:26.382Z,72.24
2023-05-06T23:37:28.592Z,70.15
2023-05-06T23:42:30.851Z,68.47
2023-05-06T23:47:33.218Z,71.05
2023-05-06T23:52:38.366Z,73.02
2023-05-06T23:57:40.563Z,70.91
